Time;durP1;ratioP1;P1;durP2;ratioP2;P2;SDS_P1;SDS_P2;PMS_P1;PMS_P2;Temp;Humidity;BMP_temperature;BMP_pressure;BME280_temperature;BME280_humidity;BME280_pressure;Samples;Min_cycle;Max_cycle;Signal;HPM_P1;HPM_P2
2021/08/07 00:02:53;;;;;;;3.95;2.40;;;;;;;17.58;84.58;99454.47;6224450;28;20049;-81
2021/08/07 00:05:54;;;;;;;5.55;2.70;;;;;;;17.53;84.43;99461.03;6208162;28;20050;-81
2021/08/07 00:08:55;;;;;;;4.28;2.90;;;;;;;17.55;83.97;99468.78;6208088;28;20038;-80
2021/08/07 00:11:55;;;;;;;7.78;3.03;;;;;;;17.65;83.41;99466.06;6224305;28;20169;-81
2021/08/07 00:14:56;;;;;;;3.75;2.75;;;;;;;17.67;82.90;99466.75;6191858;28;20406;-81
2021/08/07 00:17:57;;;;;;;6.75;3.10;;;;;;;17.69;82.41;99456.88;6208450;28;20045;-80
2021/08/07 00:20:57;;;;;;;8.38;3.13;;;;;;;17.50;83.39;99456.06;6225233;28;20428;-80
2021/08/07 00:23:58;;;;;;;9.35;3.15;;;;;;;17.46;83.61;99467.06;6209369;28;20049;-81
2021/08/07 00:26:59;;;;;;;6.53;3.10;;;;;;;17.51;82.54;99462.16;6192121;28;20125;-80
2021/08/07 00:30:00;;;;;;;5.15;3.08;;;;;;;17.57;82.64;99466.81;6207716;28;20046;-81
2021/08/07 00:33:01;;;;;;;4.40;3.13;;;;;;;17.61;82.86;99464.72;6191440;28;20069;-80
2021/08/07 00:36:01;;;;;;;5.32;3.45;;;;;;;17.61;83.63;99459.44;6207684;28;20374;-80
2021/08/07 00:39:02;;;;;;;6.57;3.30;;;;;;;17.60;83.51;99461.22;6223913;28;20052;-80
2021/08/07 00:42:03;;;;;;;8.38;3.45;;;;;;;17.49;83.03;99459.66;6223659;28;20038;-80
2021/08/07 00:45:04;;;;;;;8.23;2.95;;;;;;;17.37;84.53;99463.53;6223617;28;20481;-80
2021/08/07 00:48:07;;;;;;;5.97;3.23;;;;;;;17.58;82.63;99462.38;6223534;28;20448;-80
2021/08/07 00:51:08;;;;;;;5.57;3.60;;;;;;;17.45;82.34;99463.59;6224541;28;20057;-80
2021/08/07 00:54:09;;;;;;;6.22;3.42;;;;;;;17.50;82.98;99457.84;6189755;28;20042;-81
2021/08/07 00:57:10;;;;;;;10.52;3.60;;;;;;;17.50;83.56;99463.13;6191072;28;20034;-80
2021/08/07 01:00:11;;;;;;;5.43;3.95;;;;;;;17.55;82.86;99455.59;6206937;28;20038;-80
2021/08/07 01:03:39;;;;;;;4.32;3.42;;;;;;;17.29;84.36;99460.81;6223038;28;20046;-80
2021/08/07 01:06:52;;;;;;;4.97;3.20;;;;;;;17.36;83.70;99461.03;6222856;28;20448;-81
2021/08/07 01:10:13;;;;;;;8.57;2.88;;;;;;;17.19;83.62;99468.78;6222878;28;20065;-80
2021/08/07 01:13:28;;;;;;;9.40;2.77;;;;;;;17.10;84.02;99470.53;6222815;28;20364;-81
2021/08/07 01:16:32;;;;;;;6.00;2.95;;;;;;;16.89;85.61;99483.16;6222993;28;20111;-81
2021/08/07 01:20:11;;;;;;;4.35;2.25;;;;;;;16.94;85.11;99480.91;6222608;28;20463;-81
2021/08/07 01:23:21;;;;;;;3.80;2.20;;;;;;;16.92;84.82;99481.06;6223821;28;20088;-81
2021/08/07 01:26:36;;;;;;;4.07;2.65;;;;;;;16.86;84.90;99481.66;6222490;28;20046;-80
2021/08/07 01:29:37;;;;;;;2.75;2.22;;;;;;;17.04;84.40;99483.47;6222468;28;20042;-81
2021/08/07 01:32:39;;;;;;;3.33;2.37;;;;;;;17.11;83.40;99485.38;6222304;28;20048;-81
2021/08/07 01:35:40;;;;;;;3.35;2.45;;;;;;;17.04;83.97;99491.38;6206217;28;20501;-80
2021/08/07 01:38:45;;;;;;;2.77;2.37;;;;;;;17.02;83.70;99493.34;6222254;28;20037;-80
2021/08/07 01:41:46;;;;;;;2.65;2.30;;;;;;;16.93;83.94;99492.44;6206016;28;20038;-81
2021/08/07 01:44:47;;;;;;;4.82;2.58;;;;;;;16.94;84.42;99488.81;6205968;28;20401;-80
2021/08/07 01:48:00;;;;;;;5.07;2.55;;;;;;;16.80;84.72;99495.41;6222641;28;20108;-81
2021/08/07 01:51:06;;;;;;;6.03;2.47;;;;;;;17.02;82.96;99495.97;6224061;28;20096;-81
2021/08/07 01:54:09;;;;;;;4.15;2.38;;;;;;;17.06;82.97;99502.59;6222807;28;20540;-81
2021/08/07 01:57:15;;;;;;;2.88;2.40;;;;;;;17.18;82.22;99503.22;6222040;28;20038;-80
2021/08/07 02:00:17;;;;;;;4.43;3.15;;;;;;;17.06;81.84;99511.34;6221959;28;20038;-81
2021/08/07 02:03:19;;;;;;;3.33;2.72;;;;;;;16.91;83.44;99513.66;6205865;28;20062;-81
2021/08/07 02:06:21;;;;;;;6.75;3.30;;;;;;;16.81;83.11;99517.31;6221064;28;20529;-81
2021/08/07 02:09:23;;;;;;;4.30;3.30;;;;;;;17.05;82.37;99524.69;6205231;28;20061;-81
2021/08/07 02:12:24;;;;;;;4.13;3.40;;;;;;;16.99;81.95;99523.47;6205094;28;20042;-81
2021/08/07 02:15:25;;;;;;;4.63;3.40;;;;;;;17.01;81.26;99520.69;6221701;28;20084;-81
2021/08/07 02:18:26;;;;;;;4.97;3.75;;;;;;;16.96;82.24;99529.00;6188822;28;20034;-80
2021/08/07 02:21:28;;;;;;;12.35;3.50;;;;;;;17.03;80.59;99530.09;6221298;28;20394;-81
2021/08/07 02:24:29;;;;;;;3.73;3.20;;;;;;;17.10;81.16;99528.50;6205038;28;20042;-81
2021/08/07 02:27:30;;;;;;;6.10;3.53;;;;;;;17.16;81.08;99528.91;6221163;28;20307;-81
2021/08/07 02:30:32;;;;;;;7.55;3.60;;;;;;;17.13;80.59;99530.00;6204845;28;20046;-81
2021/08/07 02:33:35;;;;;;;4.35;3.72;;;;;;;17.20;78.71;99540.81;6188816;28;20139;-80
2021/08/07 02:36:37;;;;;;;4.43;3.40;;;;;;;17.03;79.89;99538.00;6220917;28;20046;-81
2021/08/07 02:39:39;;;;;;;4.78;3.70;;;;;;;16.86;79.95;99547.53;6204745;28;20400;-80
2021/08/07 02:42:41;;;;;;;4.90;3.60;;;;;;;16.82;80.67;99548.81;6220806;28;20034;-81
2021/08/07 02:45:43;;;;;;;3.65;3.35;;;;;;;16.91;80.21;99557.63;6220809;28;20404;-81
2021/08/07 02:48:44;;;;;;;4.13;3.50;;;;;;;16.80;79.58;99561.25;6220770;28;20046;-80
2021/08/07 02:51:48;;;;;;;7.07;3.80;;;;;;;16.67;80.20;99558.09;6220687;28;20050;-80
2021/08/07 02:54:50;;;;;;;5.25;3.63;;;;;;;16.69;80.16;99559.63;6220807;28;20452;-80
2021/08/07 02:57:52;;;;;;;6.32;3.75;;;;;;;16.52;81.06;99563.03;6220554;28;20046;-80
2021/08/07 03:00:52;;;;;;;4.53;3.63;;;;;;;16.69;81.22;99562.25;6220548;28;20514;-80
2021/08/07 03:03:53;;;;;;;4.68;3.60;;;;;;;16.78;80.75;99575.53;6220411;28;20121;-80
2021/08/07 03:06:54;;;;;;;6.55;3.78;;;;;;;16.70;80.60;99563.94;6204026;28;20077;-80
2021/08/07 03:09:55;;;;;;;4.20;3.50;;;;;;;16.65;80.83;99563.50;6204050;28;20038;-81
2021/08/07 03:12:57;;;;;;;5.38;3.60;;;;;;;16.67;80.67;99558.09;6204131;28;20041;-80
2021/08/07 03:15:57;;;;;;;;;;;;;;;16.71;80.76;99568.19;6220766;28;20041;-81
2021/08/07 03:18:58;;;;;;;4.28;3.65;;;;;;;16.67;81.08;99560.75;6219584;28;19922;-80
2021/08/07 03:21:59;;;;;;;4.25;3.60;;;;;;;16.72;80.71;99566.41;6203932;28;20045;-80
2021/08/07 03:25:00;;;;;;;8.52;4.25;;;;;;;16.52;80.79;99563.03;6204002;28;20053;-81
2021/08/07 03:28:02;;;;;;;4.97;3.80;;;;;;;16.64;80.73;99568.94;6203986;28;20112;-80
2021/08/07 03:31:03;;;;;;;6.45;4.15;;;;;;;16.40;81.92;99564.16;6203740;28;20452;-80
2021/08/07 03:34:04;;;;;;;5.22;3.72;;;;;;;16.47;82.68;99568.72;6220066;28;20120;-80
2021/08/07 03:37:05;;;;;;;6.53;4.00;;;;;;;16.44;82.19;99566.34;6219991;28;20038;-80
2021/08/07 03:40:06;;;;;;;4.35;3.95;;;;;;;16.55;81.14;99564.53;6221100;28;20053;-81
2021/08/07 03:43:07;;;;;;;5.68;3.97;;;;;;;16.63;81.65;99573.38;6203721;28;20073;-80
2021/08/07 03:46:08;;;;;;;6.13;4.00;;;;;;;16.29;83.47;99568.63;6203580;28;20045;-80
2021/08/07 03:49:08;;;;;;;14.95;4.10;;;;;;;16.42;84.04;99576.22;6219783;28;20048;-80
2021/08/07 03:52:09;;;;;;;7.55;4.20;;;;;;;16.51;83.24;99585.91;6219917;28;20049;-81
2021/08/07 03:55:10;;;;;;;4.75;3.90;;;;;;;16.60;82.80;99583.38;6221480;28;20053;-80
2021/08/07 03:58:11;;;;;;;6.13;4.20;;;;;;;16.42;84.05;99584.09;6188274;28;20049;-80
2021/08/07 04:01:12;;;;;;;7.70;4.10;;;;;;;16.51;83.88;99578.00;6187946;28;20373;-80
2021/08/07 04:04:13;;;;;;;6.40;4.35;;;;;;;16.65;82.74;99584.59;6203498;28;20049;-81
2021/08/07 04:07:13;;;;;;;6.70;4.40;;;;;;;16.63;83.44;99581.25;6203363;28;20054;-81
2021/08/07 04:10:16;;;;;;;5.93;4.20;;;;;;;16.58;83.37;99583.50;6219569;28;20072;-81
2021/08/07 04:13:17;;;;;;;4.82;4.30;;;;;;;16.60;83.52;99586.84;6203537;28;20042;-81
2021/08/07 04:16:17;;;;;;;9.50;4.00;;;;;;;16.79;83.07;99593.00;6203431;28;20544;-80
2021/08/07 04:19:21;;;;;;;5.65;4.03;;;;;;;16.88;82.25;99585.09;6220542;28;20066;-81
2021/08/07 04:22:23;;;;;;;4.65;3.78;;;;;;;16.81;82.59;99589.28;6187634;28;20053;-81
2021/08/07 04:25:24;;;;;;;4.57;3.85;;;;;;;16.86;82.89;99587.06;6219359;28;20049;-81
2021/08/07 04:28:24;;;;;;;6.45;3.95;;;;;;;16.98;81.84;99585.03;6220428;28;20041;-80
2021/08/07 04:31:25;;;;;;;7.22;3.95;;;;;;;17.06;82.44;99579.03;6225027;28;20103;-81
2021/08/07 04:34:26;;;;;;;8.65;3.70;;;;;;;16.99;82.68;99586.72;6223792;28;20044;-80
2021/08/07 04:37:27;;;;;;;5.38;3.80;;;;;;;17.01;82.34;99587.41;6191313;28;20038;-81
2021/08/07 04:40:29;;;;;;;8.00;4.10;;;;;;;17.03;82.23;99587.25;6223598;28;20038;-81
2021/08/07 04:43:31;;;;;;;6.05;3.88;;;;;;;16.81;82.90;99585.81;6223692;28;20042;-80
2021/08/07 04:46:32;;;;;;;5.68;3.80;;;;;;;16.99;84.28;99596.44;6207500;28;20048;-81
2021/08/07 04:49:34;;;;;;;6.50;3.88;;;;;;;17.06;83.92;99595.69;6207287;28;20045;-81
2021/08/07 04:52:34;;;;;;;4.90;3.97;;;;;;;17.02;82.96;99585.59;6224603;28;20046;-81
2021/08/07 04:55:35;;;;;;;7.13;3.90;;;;;;;17.02;84.05;99588.22;6223391;28;20408;-81
2021/08/07 04:58:36;;;;;;;5.97;3.80;;;;;;;17.25;82.81;99591.28;6207005;28;20389;-80
2021/08/07 05:01:37;;;;;;;8.13;3.63;;;;;;;17.39;83.21;99595.22;6223073;28;20125;-81
2021/08/07 05:04:38;;;;;;;19.35;4.20;;;;;;;17.33;83.35;99602.75;6222935;28;20054;-80
2021/08/07 05:07:39;;;;;;;10.25;4.28;;;;;;;17.18;84.32;99609.50;6206741;28;20038;-81
2021/08/07 05:10:40;;;;;;;8.10;4.43;;;;;;;17.19;83.87;99616.41;6174549;28;20053;-81
2021/08/07 05:13:41;;;;;;;8.40;4.70;;;;;;;17.43;83.80;99615.88;6222870;28;20042;-80
2021/08/07 05:16:41;;;;;;;5.30;4.20;;;;;;;17.33;83.41;99613.28;6224077;28;20104;-80
2021/08/07 05:19:42;;;;;;;9.23;4.53;;;;;;;17.35;84.29;99612.31;6223936;28;20038;-81
2021/08/07 05:22:43;;;;;;;7.63;4.60;;;;;;;17.40;83.50;99612.69;6222799;28;20046;-80
2021/08/07 05:25:44;;;;;;;9.13;4.38;;;;;;;17.56;84.15;99614.69;6223837;28;20042;-81
2021/08/07 05:28:45;;;;;;;10.52;4.55;;;;;;;17.58;83.84;99623.28;6222543;28;20061;-80
2021/08/07 05:31:46;;;;;;;12.48;4.63;;;;;;;17.70;83.66;99627.34;6223570;28;20042;-80
2021/08/07 05:34:47;;;;;;;7.22;4.95;;;;;;;17.80;83.55;99629.94;6206116;28;20045;-81
2021/08/07 05:37:48;;;;;;;5.95;4.38;;;;;;;17.92;84.58;99626.94;6222490;28;20038;-80
2021/08/07 05:40:48;;;;;;;7.43;4.57;;;;;;;18.01;84.70;99616.47;6205128;28;20042;-80
2021/08/07 05:43:49;;;;;;;5.93;4.22;;;;;;;18.15;83.82;99626.47;6206005;28;20104;-80
2021/08/07 05:46:50;;;;;;;7.05;4.15;;;;;;;18.23;82.44;99633.66;6189753;28;20442;-81
2021/08/07 05:49:50;;;;;;;8.77;4.65;;;;;;;18.28;82.29;99631.34;6189947;28;20096;-80
2021/08/07 05:52:51;;;;;;;10.35;4.03;;;;;;;18.42;82.08;99625.50;6223262;28;20042;-80
2021/08/07 05:55:55;;;;;;;5.43;3.65;;;;;;;18.43;83.12;99627.19;6205720;28;20049;-81
2021/08/07 05:58:56;;;;;;;5.70;3.95;;;;;;;18.51;80.07;99626.41;6190424;28;20074;-80
2021/08/07 06:01:56;;;;;;;5.57;3.80;;;;;;;18.65;81.76;99633.75;6207060;28;20044;-81
2021/08/07 06:04:57;;;;;;;11.10;3.30;;;;;;;18.74;79.85;99632.00;6222386;28;20081;-80
2021/08/07 06:07:58;;;;;;;6.00;3.73;;;;;;;18.85;78.86;99618.53;6206039;28;20053;-81
2021/08/07 06:10:59;;;;;;;5.30;3.63;;;;;;;18.93;78.48;99620.41;6189300;28;20049;-81
2021/08/07 06:13:59;;;;;;;8.00;3.27;;;;;;;19.01;80.40;99615.16;6205200;28;20034;-81
2021/08/07 06:17:00;;;;;;;5.80;3.28;;;;;;;19.06;78.90;99625.25;6221777;28;20045;-81
2021/08/07 06:20:01;;;;;;;9.57;3.10;;;;;;;19.20;79.15;99624.66;6217395;28;20049;-81
2021/08/07 06:23:01;;;;;;;3.93;3.30;;;;;;;19.26;75.82;99626.66;6247704;28;20097;-81
2021/08/07 06:26:02;;;;;;;7.30;3.33;;;;;;;19.35;78.70;99624.03;6212089;28;20037;-79
2021/08/07 06:29:04;;;;;;;6.90;3.28;;;;;;;19.42;78.76;99628.53;6246578;28;20052;-79
2021/08/07 06:32:05;;;;;;;3.92;2.92;;;;;;;19.48;77.58;99617.31;6247479;28;20518;-79
2021/08/07 06:35:06;;;;;;;7.13;3.70;;;;;;;19.56;76.74;99621.78;6230661;28;20073;-79
2021/08/07 06:38:08;;;;;;;9.05;3.25;;;;;;;19.60;77.82;99622.28;6239223;28;20049;-77
2021/08/07 06:41:08;;;;;;;5.53;3.30;;;;;;;19.70;77.26;99612.38;6217780;28;20065;-77
2021/08/07 06:44:09;;;;;;;3.77;2.90;;;;;;;19.82;79.49;99616.38;6245938;28;20041;-78
2021/08/07 06:47:10;;;;;;;5.23;2.63;;;;;;;19.82;72.28;99621.69;6239742;28;20503;-78
2021/08/07 06:50:11;;;;;;;3.07;2.37;;;;;;;19.97;75.33;99621.03;6244962;28;20041;-84
2021/08/07 06:53:12;;;;;;;2.77;2.30;;;;;;;20.03;74.56;99621.19;6220636;28;20056;-85
2021/08/07 06:56:12;;;;;;;8.83;2.67;;;;;;;20.13;73.25;99631.63;6221047;28;20045;-83
2021/08/07 06:59:14;;;;;;;6.87;2.73;;;;;;;20.16;74.91;99633.09;6204114;28;20608;-80
2021/08/07 07:02:15;;;;;;;5.13;2.95;;;;;;;20.27;75.13;99638.91;6227720;28;20041;-80
2021/08/07 07:05:17;;;;;;;9.70;2.77;;;;;;;20.31;74.77;99642.88;6228294;28;20103;-80
2021/08/07 07:08:19;;;;;;;;;;;;;;;20.44;75.31;99642.38;6245496;28;20041;-81
2021/08/07 07:11:20;;;;;;;3.65;2.55;;;;;;;20.48;71.69;99643.69;6245000;28;20482;-80
2021/08/07 07:14:20;;;;;;;7.17;2.33;;;;;;;20.60;72.19;99649.50;6244812;28;20049;-80
2021/08/07 07:17:24;;;;;;;3.43;2.60;;;;;;;20.62;71.67;99636.09;6244853;28;20045;-80
2021/08/07 07:20:25;;;;;;;6.20;2.60;;;;;;;20.72;74.50;99642.84;6212646;28;20049;-80
2021/08/07 07:23:26;;;;;;;5.27;2.70;;;;;;;20.80;72.30;99644.66;6223838;28;20045;-80
2021/08/07 07:26:28;;;;;;;4.17;2.50;;;;;;;20.95;72.34;99638.66;6218947;28;20065;-80
2021/08/07 07:29:28;;;;;;;;;;;;;;;21.00;70.96;99641.63;6222942;28;20033;-81
2021/08/07 07:32:29;;;;;;;4.70;2.10;;;;;;;21.09;70.96;99633.47;6233471;28;19956;-80
2021/08/07 07:35:30;;;;;;;3.67;2.33;;;;;;;21.14;70.60;99644.38;6233217;28;20116;-81
2021/08/07 07:38:31;;;;;;;6.20;2.40;;;;;;;21.28;69.59;99642.00;6225829;28;20045;-84
2021/08/07 07:41:32;;;;;;;2.73;2.13;;;;;;;21.30;70.44;99638.19;6211527;28;20057;-85
2021/08/07 07:44:34;;;;;;;4.28;2.20;;;;;;;21.38;69.24;99634.66;6244033;28;20041;-87
2021/08/07 07:47:34;;;;;;;3.75;2.38;;;;;;;21.63;70.97;99643.34;6243470;28;20050;-86
2021/08/07 07:50:35;;;;;;;2.43;2.23;;;;;;;21.72;70.01;99638.81;6211333;28;20512;-88
2021/08/07 07:53:36;;;;;;;3.37;1.80;;;;;;;21.79;66.47;99646.91;6213116;28;20550;-88
2021/08/07 07:56:37;;;;;;;4.43;2.17;;;;;;;21.81;68.75;99644.91;6204544;28;20049;-88
2021/08/07 07:59:37;;;;;;;3.90;1.90;;;;;;;21.88;66.89;99649.31;6203774;28;20046;-84
2021/08/07 08:02:38;;;;;;;4.93;1.70;;;;;;;21.93;67.40;99656.78;6220719;28;20113;-87
2021/08/07 08:05:39;;;;;;;2.10;1.87;;;;;;;22.06;66.37;99651.69;6190613;28;20096;-86
2021/08/07 08:08:40;;;;;;;3.13;2.03;;;;;;;22.35;68.92;99663.44;6207746;28;20041;-86
2021/08/07 08:11:41;;;;;;;1.80;1.63;;;;;;;22.44;68.67;99662.34;6225053;28;20394;-86
2021/08/07 08:14:41;;;;;;;3.27;1.53;;;;;;;22.49;62.53;99657.31;6193811;28;20046;-87
2021/08/07 08:17:42;;;;;;;3.77;1.60;;;;;;;22.53;61.83;99653.31;6225217;28;20042;-86
2021/08/07 08:20:43;;;;;;;3.60;1.40;;;;;;;22.62;61.79;99655.88;6225400;28;20041;-86
2021/08/07 08:23:43;;;;;;;2.17;1.60;;;;;;;22.59;60.60;99658.88;6217367;28;20041;-87
2021/08/07 08:26:44;;;;;;;1.93;1.70;;;;;;;22.60;63.00;99664.03;6233786;28;20107;-86
2021/08/07 08:29:46;;;;;;;1.77;1.43;;;;;;;22.56;59.87;99667.25;6250193;28;20067;-86
2021/08/07 08:32:47;;;;;;;4.68;1.77;;;;;;;22.75;62.84;99677.34;6233581;28;20050;-86
2021/08/07 08:35:48;;;;;;;5.27;1.97;;;;;;;22.79;61.62;99678.63;6217568;28;20207;-86
2021/08/07 08:38:49;;;;;;;3.20;1.53;;;;;;;22.74;59.52;99689.81;6216680;28;20046;-86
2021/08/07 08:41:49;;;;;;;2.73;1.63;;;;;;;22.48;62.22;99678.78;6231931;28;20041;-87
2021/08/07 08:44:50;;;;;;;1.97;1.70;;;;;;;22.46;62.46;99683.44;6248351;28;20110;-88
2021/08/07 08:47:51;;;;;;;1.67;1.50;;;;;;;22.53;63.44;99684.38;6231738;28;20282;-87
2021/08/07 08:50:53;;;;;;;5.95;1.90;;;;;;;22.42;63.70;99688.28;6231783;28;20052;-87
2021/08/07 08:53:54;;;;;;;2.30;1.40;;;;;;;22.41;60.40;99688.47;6247952;28;20420;-87
2021/08/07 08:56:55;;;;;;;4.70;1.92;;;;;;;22.50;63.62;99684.72;6231491;28;20044;-88
2021/08/07 08:59:56;;;;;;;4.07;1.80;;;;;;;22.57;63.41;99679.50;6231371;28;20033;-88
2021/08/07 09:02:56;;;;;;;2.60;1.50;;;;;;;22.72;58.13;99677.72;6247837;28;20524;-89
2021/08/07 09:05:57;;;;;;;1.87;1.60;;;;;;;22.95;56.88;99682.97;6214729;28;20048;-89
2021/08/07 09:09:01;;;;;;;4.10;1.83;;;;;;;23.02;60.07;99683.94;6231157;28;20462;-88
2021/08/07 09:12:02;;;;;;;4.78;1.95;;;;;;;23.24;61.19;99699.97;6247641;28;20041;-87
2021/08/07 09:15:04;;;;;;;1.35;1.25;;;;;;;23.20;57.24;99680.88;6246201;28;20068;-88
2021/08/07 09:18:13;;;;;;;2.08;1.30;;;;;;;23.19;57.69;99691.72;6231120;28;20053;-87
2021/08/07 09:21:17;;;;;;;3.00;1.35;;;;;;;23.41;54.99;99674.81;6247496;28;20042;-88
2021/08/07 09:24:18;;;;;;;1.60;1.20;;;;;;;23.55;57.91;99681.09;6249429;28;20096;-88
2021/08/07 09:27:26;;;;;;;2.20;1.30;;;;;;;23.73;50.97;99686.84;6214649;28;20046;-87
2021/08/07 09:30:33;;;;;;;5.03;1.30;;;;;;;23.83;55.52;99683.09;6248518;28;20129;-86
2021/08/07 09:33:36;;;;;;;2.13;1.15;;;;;;;23.77;52.49;99679.34;6247296;28;20037;-88
2021/08/07 09:36:53;;;;;;;1.40;1.10;;;;;;;23.95;54.43;99686.91;6215038;28;20072;-87
2021/08/07 09:39:54;;;;;;;4.65;1.20;;;;;;;23.92;50.91;99681.94;6227045;28;20052;-83
2021/08/07 09:42:55;;;;;;;2.00;1.10;;;;;;;24.05;50.47;99682.09;6229394;28;20041;-83
2021/08/07 09:46:15;;;;;;;1.67;1.10;;;;;;;24.26;53.08;99683.09;6228508;28;20485;-83
2021/08/07 09:49:16;;;;;;;1.23;0.95;;;;;;;24.49;47.85;99688.22;6245078;28;20044;-82
2021/08/07 09:52:17;;;;;;;3.50;1.10;;;;;;;24.51;45.92;99694.22;6216098;28;20506;-85
2021/08/07 09:55:18;;;;;;;1.20;1.10;;;;;;;24.58;47.17;99694.25;6206479;28;20038;-81
2021/08/07 09:58:23;;;;;;;2.63;0.90;;;;;;;24.53;46.85;99693.00;6221544;28;20121;-84
2021/08/07 10:01:28;;;;;;;1.70;0.90;;;;;;;24.66;44.94;99700.25;6221174;28;20041;-83
2021/08/07 10:04:42;;;;;;;4.28;1.00;;;;;;;24.99;45.99;99691.66;6238304;28;20416;-84
2021/08/07 10:08:01;;;;;;;3.30;1.40;;;;;;;25.21;44.04;99695.09;6245733;28;20041;-87
2021/08/07 10:11:12;;;;;;;2.90;1.00;;;;;;;25.39;44.09;99697.25;6245808;28;20045;-87
2021/08/07 10:14:15;;;;;;;1.98;1.00;;;;;;;25.83;45.11;99703.16;6226287;28;20057;-84
2021/08/07 10:17:18;;;;;;;1.40;0.75;;;;;;;25.87;42.82;99694.53;6270559;28;20091;-83
2021/08/07 10:20:20;;;;;;;0.90;0.73;;;;;;;25.93;43.73;99699.09;6271038;28;20037;-85
2021/08/07 10:23:21;;;;;;;;;;;;;;;25.89;41.67;99691.66;6254948;28;20045;-85
2021/08/07 10:26:26;;;;;;;3.43;1.00;;;;;;;25.70;42.60;99696.75;6270723;28;19925;-85
2021/08/07 10:29:46;;;;;;;1.65;0.82;;;;;;;25.62;41.36;99701.44;6271309;28;20071;-86
2021/08/07 10:32:56;;;;;;;1.67;0.65;;;;;;;25.51;40.69;99687.66;6271713;28;20041;-84
2021/08/07 10:36:04;;;;;;;2.08;0.93;;;;;;;25.42;40.47;99693.34;6271545;28;20033;-85
2021/08/07 10:39:06;;;;;;;1.20;0.80;;;;;;;25.24;41.19;99686.69;6254814;28;20072;-87
2021/08/07 10:42:11;;;;;;;3.53;0.73;;;;;;;25.41;40.43;99683.69;6255079;28;20163;-87
2021/08/07 10:45:17;;;;;;;2.35;0.77;;;;;;;25.63;39.70;99677.19;6271223;28;20037;-87
2021/08/07 10:48:38;;;;;;;2.85;0.93;;;;;;;25.72;41.95;99672.50;6223780;28;20049;-91
2021/08/07 10:51:40;;;;;;;4.95;0.82;;;;;;;25.83;43.63;99671.09;6273109;28;20091;-90
2021/08/07 10:54:42;;;;;;;1.52;0.80;;;;;;;25.91;38.12;99676.28;6273589;28;20033;-91
2021/08/07 10:58:01;;;;;;;5.27;0.80;;;;;;;26.06;38.30;99682.25;6240993;28;20044;-93
2021/08/07 11:01:21;;;;;;;4.30;0.80;;;;;;;26.19;39.05;99678.78;6272373;28;20083;-89
2021/08/07 11:04:30;;;;;;;1.35;0.85;;;;;;;26.11;36.44;99687.00;6274227;28;20514;-91
2021/08/07 11:07:31;;;;;;;4.65;0.80;;;;;;;26.11;38.95;99679.81;6256542;28;20550;-91
2021/08/07 11:10:31;;;;;;;1.20;0.60;;;;;;;25.89;39.08;99684.47;6240452;28;20041;-92
2021/08/07 11:13:32;;;;;;;2.70;0.85;;;;;;;25.81;37.04;99683.81;6209708;28;20041;-90
2021/08/07 11:16:33;;;;;;;2.30;1.30;;;;;;;25.89;39.83;99683.63;6191681;28;20092;-93
2021/08/07 11:20:11;;;;;;;1.97;1.10;;;;;;;26.14;38.81;99673.22;6192443;28;20275;-92
2021/08/07 11:23:13;;;;;;;2.25;0.80;;;;;;;26.28;37.89;99663.34;6223449;28;20038;-92
2021/08/07 11:26:14;;;;;;;2.90;1.13;;;;;;;26.22;37.79;99669.53;6205573;28;20045;-91
2021/08/07 11:29:16;;;;;;;1.42;0.75;;;;;;;26.44;42.44;99667.44;6205719;28;20046;-90
2021/08/07 11:32:17;;;;;;;1.67;0.80;;;;;;;26.77;36.29;99671.97;6222447;28;20057;-88
2021/08/07 11:35:18;;;;;;;1.70;1.02;;;;;;;26.86;37.70;99663.53;6190281;28;20378;-88
2021/08/07 11:38:22;;;;;;;4.10;0.90;;;;;;;27.35;35.91;99664.03;6202667;28;20045;-87
2021/08/07 11:41:30;;;;;;;3.13;0.88;;;;;;;27.80;34.02;99669.34;6221311;28;20061;-87
2021/08/07 11:44:31;;;;;;;1.00;0.70;;;;;;;27.52;34.37;99665.16;6222940;28;20100;-88
2021/08/07 11:47:32;;;;;;;2.85;0.90;;;;;;;30.95;29.04;99675.28;6190930;28;20042;-90
2021/08/07 11:50:33;;;;;;;5.88;0.90;;;;;;;32.12;27.31;99674.91;6223555;28;20050;-91
2021/08/07 11:53:46;;;;;;;4.03;0.90;;;;;;;33.90;24.50;99669.41;6223869;28;20112;-90
2021/08/07 11:56:50;;;;;;;0.80;0.80;;;;;;;35.72;23.04;99681.84;6222883;28;20125;-86
2021/08/07 11:59:51;;;;;;;1.80;0.77;;;;;;;35.91;21.69;99674.00;6207136;28;20045;-91
2021/08/07 12:03:07;;;;;;;1.45;1.00;;;;;;;36.79;21.60;99672.88;6207101;28;20125;-95
2021/08/07 12:06:08;;;;;;;2.35;0.90;;;;;;;37.27;21.12;99673.25;6236734;28;20147;-85
2021/08/07 12:09:13;;;;;;;3.63;1.02;;;;;;;36.94;20.79;99676.63;6222636;28;20121;-90
2021/08/07 12:12:15;;;;;;;1.92;0.90;;;;;;;38.41;19.00;99685.00;6223075;28;20042;-91
2021/08/07 12:15:16;;;;;;;3.25;0.80;;;;;;;38.57;19.77;99680.22;6207197;28;20046;-87
2021/08/07 12:18:17;;;;;;;1.73;1.00;;;;;;;40.20;16.91;99670.94;6208225;28;20049;-88
2021/08/07 12:21:23;;;;;;;4.95;1.15;;;;;;;40.57;16.80;99669.19;6211507;28;20488;-88
2021/08/07 12:24:24;;;;;;;1.00;0.90;;;;;;;41.80;15.95;99674.00;6228510;28;20048;-87
2021/08/07 12:27:25;;;;;;;2.10;0.90;;;;;;;42.83;14.31;99675.72;6193130;28;20041;-88
2021/08/07 12:30:26;;;;;;;3.10;0.82;;;;;;;42.95;14.53;99675.09;6192211;28;20107;-88
2021/08/07 12:33:30;;;;;;;2.20;0.75;;;;;;;41.05;16.66;99674.25;6196679;28;20042;-92
2021/08/07 12:36:30;;;;;;;2.95;0.88;;;;;;;39.82;17.39;99665.50;6240484;28;20121;-90
2021/08/07 12:39:44;;;;;;;4.57;1.05;;;;;;;38.82;18.42;99664.69;6226885;28;20038;-88
2021/08/07 12:42:45;;;;;;;1.25;0.80;;;;;;;36.46;20.46;99663.41;6229752;28;20046;-88
2021/08/07 12:46:06;;;;;;;1.65;0.75;;;;;;;34.96;22.10;99656.06;6205922;28;20450;-90
2021/08/07 12:53:40;;;;;;;0.82;0.80;;;;;;;32.99;26.74;99651.06;6227982;28;20493;-90
2021/08/07 12:56:47;;;;;;;2.05;0.95;;;;;;;32.27;28.01;99638.44;6227301;28;20374;-92
2021/08/07 12:59:50;;;;;;;3.22;0.93;;;;;;;32.39;28.13;99641.84;6227319;28;20038;-91
2021/08/07 13:03:03;;;;;;;5.25;0.95;;;;;;;32.15;29.13;99640.41;6226431;28;20401;-89
2021/08/07 13:06:04;;;;;;;2.08;0.90;;;;;;;31.53;28.38;99642.00;6226028;28;20505;-91
2021/08/07 13:09:28;;;;;;;4.95;0.85;;;;;;;30.78;30.68;99634.78;6194791;28;20034;-92
2021/08/07 13:12:41;;;;;;;3.13;0.88;;;;;;;30.38;30.39;99633.63;6211507;28;20046;-87
2021/08/07 13:15:49;;;;;;;2.22;0.85;;;;;;;30.52;31.43;99639.59;6225125;28;20041;-87
2021/08/07 13:19:23;;;;;;;1.40;0.95;;;;;;;30.13;32.25;99644.59;6210066;28;20042;-87
2021/08/07 13:22:24;;;;;;;1.20;0.98;;;;;;;30.75;30.63;99637.97;6225646;28;20503;-87
2021/08/07 13:25:25;;;;;;;1.08;0.93;;;;;;;30.53;30.61;99639.34;6209272;28;20065;-87
2021/08/07 13:28:26;;;;;;;;;;;;;;;30.01;31.95;99644.56;6238747;28;20477;-86
2021/08/07 13:31:30;;;;;;;4.67;1.40;;;;;;;30.17;32.87;99653.03;6234112;28;19928;-87
2021/08/07 13:34:31;;;;;;;1.55;1.00;;;;;;;29.94;32.76;99646.53;6192683;28;20125;-86
2021/08/07 13:37:32;;;;;;;7.60;1.15;;;;;;;29.77;33.57;99646.38;6208795;28;20044;-84
2021/08/07 13:40:33;;;;;;;3.67;1.70;;;;;;;29.79;35.59;99655.03;6201234;28;20038;-90
2021/08/07 13:43:34;;;;;;;1.25;1.15;;;;;;;29.92;34.40;99652.16;6239351;28;20042;-90
2021/08/07 13:46:34;;;;;;;;;;;;;;;29.39;33.84;99654.75;6224472;28;20046;-89
2021/08/07 13:49:35;;;;;;;2.77;1.20;;;;;;;29.27;35.13;99650.13;6228808;28;19928;-89
2021/08/07 13:52:36;;;;;;;1.98;1.33;;;;;;;28.88;36.45;99652.19;6215051;28;20080;-87
2021/08/07 13:55:37;;;;;;;3.08;2.58;;;;;;;28.66;33.73;99651.81;6232174;28;20076;-85
2021/08/07 13:58:38;;;;;;;2.80;1.58;;;;;;;28.52;36.00;99648.44;6250063;28;20043;-88
2021/08/07 14:02:16;;;;;;;5.68;1.90;;;;;;;28.52;35.41;99644.94;6233119;28;20046;-88
2021/08/07 14:05:16;;;;;;;3.80;1.50;;;;;;;28.41;35.99;99646.44;6223947;28;20463;-87
2021/08/07 14:08:17;;;;;;;2.25;1.02;;;;;;;28.64;36.20;99645.00;6222425;28;20473;-82
2021/08/07 14:11:18;;;;;;;1.80;1.17;;;;;;;28.60;35.34;99641.13;6205701;28;20057;-83
2021/08/07 14:14:19;;;;;;;3.92;1.15;;;;;;;28.38;36.17;99632.66;6224226;28;20504;-83
2021/08/07 14:17:20;;;;;;;1.88;1.10;;;;;;;28.18;38.40;99632.81;6229183;28;20120;-93
2021/08/07 14:20:21;;;;;;;4.32;1.00;;;;;;;28.47;36.60;99636.69;6213252;28;20400;-92
2021/08/07 14:23:23;;;;;;;2.28;1.30;;;;;;;28.47;37.42;99637.50;6216989;28;20052;-94
2021/08/07 14:26:23;;;;;;;;;;;;;;;28.60;37.98;99633.91;6212140;28;20120;-94
2021/08/07 14:29:25;;;;;;;2.07;1.30;;;;;;;28.30;37.79;99634.56;6232599;28;20027;-94